Melcroft, Pennsylvania
Current Conditions -  °F | °C
As of 12:55 AM on Sunday 23 Nov 2014 (Local Time) from KLBE Reporting Station
Broken Clouds Broken Clouds  
Wind Chill: 44°   Ceiling: 10000
Heat Index: 48°   Visibility: 10mi
Dew Point: 27°   Wind: 10mph
Humidity: 43%   Direction: 210°SSW
Pressure: 30.13"   Gusts: NA
Location:  40.05°N, 79.39°W
Report Text: KLBE 230555Z AUTO 21009KT 10SM SCT060 BKN100 09/M03 A3013 RMK AO2
Loading
Personal Weather Stations






























Interactive Weather Map New forecast layout! Learn more

10-Day Weather Forecast

Advertisements
Track Severe Weather on mobile